sensor_id;sensor_type;location;lat;lon;timestamp;pressure;altitude;pressure_sealevel;temperature;humidity
6349;BME280;3207;42.648;23.406;2023-06-10T00:01:45;99527.09;;;21.84;nan
6349;BME280;3207;42.648;23.406;2023-06-10T00:04:13;99527.75;;;21.93;nan
6349;BME280;3207;42.648;23.406;2023-06-10T00:06:40;99531.19;;;21.80;nan
6349;BME280;3207;42.648;23.406;2023-06-10T00:09:07;99528.81;;;21.64;nan
6349;BME280;3207;42.648;23.406;2023-06-10T00:11:35;99527.47;;;21.47;nan
6349;BME280;3207;42.648;23.406;2023-06-10T00:21:26;99520.75;;;21.51;nan
6349;BME280;3207;42.648;23.406;2023-06-10T00:23:52;99524.09;;;21.60;nan
6349;BME280;3207;42.648;23.406;2023-06-10T00:26:21;99574.47;;;21.61;nan
6349;BME280;3207;42.648;23.406;2023-06-10T00:28:47;99515.53;;;21.64;nan
6349;BME280;3207;42.648;23.406;2023-06-10T00:31:14;99520.84;;;21.64;nan
6349;BME280;3207;42.648;23.406;2023-06-10T00:33:41;99519.66;;;21.73;nan
6349;BME280;3207;42.648;23.406;2023-06-10T00:36:10;99518.44;;;21.69;nan
6349;BME280;3207;42.648;23.406;2023-06-10T00:38:36;99524.94;;;21.60;nan
6349;BME280;3207;42.648;23.406;2023-06-10T00:41:03;99525.41;;;21.70;nan
6349;BME280;3207;42.648;23.406;2023-06-10T00:43:30;99525.00;;;21.73;nan
6349;BME280;3207;42.648;23.406;2023-06-10T00:45:57;99513.13;;;21.69;nan
6349;BME280;3207;42.648;23.406;2023-06-10T00:48:24;99521.31;;;21.74;nan
6349;BME280;3207;42.648;23.406;2023-06-10T00:50:51;99509.38;;;21.64;nan
6349;BME280;3207;42.648;23.406;2023-06-10T00:53:21;99507.88;;;21.54;nan
6349;BME280;3207;42.648;23.406;2023-06-10T00:55:49;99507.72;;;21.63;nan
6349;BME280;3207;42.648;23.406;2023-06-10T00:58:15;99551.47;;;21.53;nan
6349;BME280;3207;42.648;23.406;2023-06-10T01:03:13;99500.59;;;21.35;nan
6349;BME280;3207;42.648;23.406;2023-06-10T01:18:06;99500.88;;;21.47;nan
6349;BME280;3207;42.648;23.406;2023-06-10T01:20:36;99620.41;;;21.27;nan
6349;BME280;3207;42.648;23.406;2023-06-10T01:33:06;99505.09;;;20.92;nan
6349;BME280;3207;42.648;23.406;2023-06-10T01:38:03;99503.09;;;20.73;nan
6349;BME280;3207;42.648;23.406;2023-06-10T02:17:14;99505.56;;;20.74;nan
6349;BME280;3207;42.648;23.406;2023-06-10T02:27:02;99536.44;;;20.75;nan
6349;BME280;3207;42.648;23.406;2023-06-10T03:01:21;99535.81;;;20.95;nan
6349;BME280;3207;42.648;23.406;2023-06-10T04:10:07;99573.16;;;21.08;nan
6349;BME280;3207;42.648;23.406;2023-06-10T04:17:28;99558.00;;;21.08;nan
6349;BME280;3207;42.648;23.406;2023-06-10T04:39:31;99541.69;;;21.33;nan
6349;BME280;3207;42.648;23.406;2023-06-10T04:44:24;99564.56;;;21.55;nan
6349;BME280;3207;42.648;23.406;2023-06-10T04:46:51;99565.44;;;21.62;nan
6349;BME280;3207;42.648;23.406;2023-06-10T04:49:19;99563.88;;;21.74;nan
6349;BME280;3207;42.648;23.406;2023-06-10T04:51:46;99608.13;;;21.75;nan
6349;BME280;3207;42.648;23.406;2023-06-10T04:54:13;99592.59;;;21.79;nan
6349;BME280;3207;42.648;23.406;2023-06-10T04:56:41;99557.47;;;21.90;nan
6349;BME280;3207;42.648;23.406;2023-06-10T04:59:11;99561.16;;;21.96;nan
6349;BME280;3207;42.648;23.406;2023-06-10T05:01:37;99559.69;;;21.86;nan
6349;BME280;3207;42.648;23.406;2023-06-10T05:04:04;99569.63;;;21.71;nan
6349;BME280;3207;42.648;23.406;2023-06-10T05:06:32;99571.13;;;21.31;nan
6349;BME280;3207;42.648;23.406;2023-06-10T05:08:59;99602.34;;;21.23;nan
6349;BME280;3207;42.648;23.406;2023-06-10T05:11:26;99568.53;;;21.38;nan
6349;BME280;3207;42.648;23.406;2023-06-10T05:16:19;99583.34;;;21.47;nan
6349;BME280;3207;42.648;23.406;2023-06-10T05:23:42;99587.88;;;21.53;nan
6349;BME280;3207;42.648;23.406;2023-06-10T05:31:02;99591.47;;;21.95;nan
6349;BME280;3207;42.648;23.406;2023-06-10T05:33:29;99586.03;;;22.03;nan
6349;BME280;3207;42.648;23.406;2023-06-10T05:35:56;99586.78;;;22.24;nan
6349;BME280;3207;42.648;23.406;2023-06-10T05:38:23;99629.88;;;22.41;nan
6349;BME280;3207;42.648;23.406;2023-06-10T05:40:51;99592.22;;;22.57;nan
6349;BME280;3207;42.648;23.406;2023-06-10T05:43:18;99587.31;;;22.54;nan
6349;BME280;3207;42.648;23.406;2023-06-10T05:45:45;99582.91;;;22.81;nan
6349;BME280;3207;42.648;23.406;2023-06-10T05:48:12;99589.50;;;22.92;nan
6349;BME280;3207;42.648;23.406;2023-06-10T05:53:08;99592.78;;;22.94;nan
6349;BME280;3207;42.648;23.406;2023-06-10T05:58:08;99602.25;;;23.10;nan
6349;BME280;3207;42.648;23.406;2023-06-10T06:08:00;99605.53;;;23.05;nan
6349;BME280;3207;42.648;23.406;2023-06-10T06:10:26;99609.25;;;23.24;nan
6349;BME280;3207;42.648;23.406;2023-06-10T06:12:53;99598.41;;;23.19;nan
6349;BME280;3207;42.648;23.406;2023-06-10T06:15:22;99601.88;;;23.32;nan
6349;BME280;3207;42.648;23.406;2023-06-10T06:17:49;99611.38;;;23.55;nan
6349;BME280;3207;42.648;23.406;2023-06-10T06:22:44;99614.88;;;23.82;nan
6349;BME280;3207;42.648;23.406;2023-06-10T06:30:05;99607.81;;;24.33;nan
6349;BME280;3207;42.648;23.406;2023-06-10T06:32:34;99610.41;;;24.53;nan
6349;BME280;3207;42.648;23.406;2023-06-10T06:35:01;99610.38;;;24.66;nan
6349;BME280;3207;42.648;23.406;2023-06-10T06:37:28;99609.91;;;24.69;nan
6349;BME280;3207;42.648;23.406;2023-06-10T06:39:55;99602.34;;;24.66;nan
6349;BME280;3207;42.648;23.406;2023-06-10T06:42:21;99600.88;;;24.70;nan
6349;BME280;3207;42.648;23.406;2023-06-10T06:44:48;99607.81;;;24.85;nan
6349;BME280;3207;42.648;23.406;2023-06-10T06:47:15;99610.94;;;25.13;nan
6349;BME280;3207;42.648;23.406;2023-06-10T06:49:46;99610.00;;;25.01;nan
6349;BME280;3207;42.648;23.406;2023-06-10T06:52:13;99608.13;;;25.33;nan
6349;BME280;3207;42.648;23.406;2023-06-10T06:54:40;99601.53;;;25.67;nan
6349;BME280;3207;42.648;23.406;2023-06-10T06:57:07;99629.91;;;25.74;nan
6349;BME280;3207;42.648;23.406;2023-06-10T06:59:34;99613.38;;;25.77;nan
6349;BME280;3207;42.648;23.406;2023-06-10T07:02:00;99611.56;;;25.96;nan
6349;BME280;3207;42.648;23.406;2023-06-10T07:04:27;99612.75;;;26.00;nan
6349;BME280;3207;42.648;23.406;2023-06-10T07:06:55;99614.22;;;25.96;nan
6349;BME280;3207;42.648;23.406;2023-06-10T07:09:22;99603.81;;;25.88;nan
6349;BME280;3207;42.648;23.406;2023-06-10T07:11:49;99602.34;;;26.10;nan
6349;BME280;3207;42.648;23.406;2023-06-10T07:14:16;99600.53;;;26.47;nan
6349;BME280;3207;42.648;23.406;2023-06-10T07:16:42;99604.75;;;26.55;nan
6349;BME280;3207;42.648;23.406;2023-06-10T07:19:10;99600.28;;;26.49;nan
6349;BME280;3207;42.648;23.406;2023-06-10T07:21:37;99598.66;;;26.66;nan
6349;BME280;3207;42.648;23.406;2023-06-10T07:24:06;99605.00;;;27.02;nan
6349;BME280;3207;42.648;23.406;2023-06-10T07:26:33;99605.28;;;27.12;nan
6349;BME280;3207;42.648;23.406;2023-06-10T07:29:00;99611.34;;;27.19;nan
6349;BME280;3207;42.648;23.406;2023-06-10T07:31:26;99621.09;;;27.31;nan
6349;BME280;3207;42.648;23.406;2023-06-10T07:33:53;99589.06;;;27.60;nan
6349;BME280;3207;42.648;23.406;2023-06-10T07:36:20;99592.91;;;27.87;nan
6349;BME280;3207;42.648;23.406;2023-06-10T07:38:47;99594.31;;;28.01;nan
6349;BME280;3207;42.648;23.406;2023-06-10T07:41:15;99600.84;;;28.05;nan
6349;BME280;3207;42.648;23.406;2023-06-10T07:43:43;99592.53;;;28.30;nan
6349;BME280;3207;42.648;23.406;2023-06-10T07:46:10;99599.63;;;28.60;nan
6349;BME280;3207;42.648;23.406;2023-06-10T07:48:41;99603.44;;;28.64;nan
6349;BME280;3207;42.648;23.406;2023-06-10T07:51:07;99607.88;;;28.70;nan
6349;BME280;3207;42.648;23.406;2023-06-10T07:53:34;99601.94;;;28.96;nan
6349;BME280;3207;42.648;23.406;2023-06-10T07:56:01;99604.94;;;29.11;nan
6349;BME280;3207;42.648;23.406;2023-06-10T07:58:29;99602.53;;;29.15;nan
6349;BME280;3207;42.648;23.406;2023-06-10T08:00:56;99602.22;;;29.40;nan
6349;BME280;3207;42.648;23.406;2023-06-10T08:03:23;99591.41;;;29.23;nan
6349;BME280;3207;42.648;23.406;2023-06-10T08:05:49;99604.69;;;29.30;nan
6349;BME280;3207;42.648;23.406;2023-06-10T08:08:16;99609.84;;;29.31;nan
6349;BME280;3207;42.648;23.406;2023-06-10T08:10:43;99584.03;;;29.35;nan
6349;BME280;3207;42.648;23.406;2023-06-10T08:13:10;99597.81;;;29.51;nan
6349;BME280;3207;42.648;23.406;2023-06-10T08:15:38;99603.94;;;29.18;nan
6349;BME280;3207;42.648;23.406;2023-06-10T08:18:05;99607.28;;;28.80;nan
6349;BME280;3207;42.648;23.406;2023-06-10T08:20:32;99600.03;;;28.68;nan
6349;BME280;3207;42.648;23.406;2023-06-10T08:22:58;99621.84;;;28.55;nan
6349;BME280;3207;42.648;23.406;2023-06-10T08:25:25;99598.22;;;28.57;nan
6349;BME280;3207;42.648;23.406;2023-06-10T08:27:52;99598.78;;;28.59;nan
6349;BME280;3207;42.648;23.406;2023-06-10T08:30:21;99594.16;;;28.43;nan
6349;BME280;3207;42.648;23.406;2023-06-10T08:32:50;99599.47;;;28.26;nan
6349;BME280;3207;42.648;23.406;2023-06-10T08:35:17;99594.44;;;27.95;nan
6349;BME280;3207;42.648;23.406;2023-06-10T08:37:44;99599.75;;;28.41;nan
6349;BME280;3207;42.648;23.406;2023-06-10T08:40:12;99601.53;;;28.76;nan
6349;BME280;3207;42.648;23.406;2023-06-10T08:42:41;99626.31;;;28.90;nan
6349;BME280;3207;42.648;23.406;2023-06-10T08:45:16;99599.19;;;28.91;nan
6349;BME280;3207;42.648;23.406;2023-06-10T08:47:44;99573.00;;;28.75;nan
6349;BME280;3207;42.648;23.406;2023-06-10T08:50:13;99593.97;;;29.01;nan
6349;BME280;3207;42.648;23.406;2023-06-10T08:52:44;99591.59;;;29.05;nan
6349;BME280;3207;42.648;23.406;2023-06-10T08:55:15;99600.91;;;29.14;nan
6349;BME280;3207;42.648;23.406;2023-06-10T08:57:43;99598.09;;;29.21;nan
6349;BME280;3207;42.648;23.406;2023-06-10T09:00:12;99600.84;;;29.26;nan
6349;BME280;3207;42.648;23.406;2023-06-10T09:02:39;99597.03;;;28.93;nan
6349;BME280;3207;42.648;23.406;2023-06-10T09:05:07;99596.56;;;28.96;nan
6349;BME280;3207;42.648;23.406;2023-06-10T09:07:36;99600.81;;;28.92;nan
6349;BME280;3207;42.648;23.406;2023-06-10T09:10:03;99596.16;;;28.76;nan
6349;BME280;3207;42.648;23.406;2023-06-10T09:12:33;99591.34;;;28.50;nan
6349;BME280;3207;42.648;23.406;2023-06-10T09:15:00;99622.50;;;28.62;nan
6349;BME280;3207;42.648;23.406;2023-06-10T09:17:27;99602.34;;;28.36;nan
6349;BME280;3207;42.648;23.406;2023-06-10T09:19:54;99613.72;;;28.67;nan
6349;BME280;3207;42.648;23.406;2023-06-10T09:22:22;99594.78;;;28.62;nan
6349;BME280;3207;42.648;23.406;2023-06-10T09:25:02;99601.03;;;28.51;nan
6349;BME280;3207;42.648;23.406;2023-06-10T09:27:30;99591.59;;;28.36;nan
6349;BME280;3207;42.648;23.406;2023-06-10T09:29:57;99585.88;;;28.33;nan
6349;BME280;3207;42.648;23.406;2023-06-10T09:32:24;99593.25;;;28.37;nan
6349;BME280;3207;42.648;23.406;2023-06-10T09:34:51;99595.13;;;28.25;nan
6349;BME280;3207;42.648;23.406;2023-06-10T09:37:22;99598.19;;;27.94;nan
6349;BME280;3207;42.648;23.406;2023-06-10T09:40:07;99591.53;;;27.73;nan
6349;BME280;3207;42.648;23.406;2023-06-10T09:42:37;99621.19;;;26.95;nan
6349;BME280;3207;42.648;23.406;2023-06-10T09:45:05;99611.81;;;26.49;nan
6349;BME280;3207;42.648;23.406;2023-06-10T09:47:33;99604.13;;;25.98;nan
6349;BME280;3207;42.648;23.406;2023-06-10T09:50:00;99606.03;;;25.73;nan
6349;BME280;3207;42.648;23.406;2023-06-10T09:52:28;99602.16;;;25.37;nan
6349;BME280;3207;42.648;23.406;2023-06-10T09:55:01;99590.53;;;24.80;nan
6349;BME280;3207;42.648;23.406;2023-06-10T09:57:32;99599.34;;;24.43;nan
6349;BME280;3207;42.648;23.406;2023-06-10T09:59:59;99577.28;;;23.30;nan
6349;BME280;3207;42.648;23.406;2023-06-10T10:02:26;99590.81;;;23.75;nan
6349;BME280;3207;42.648;23.406;2023-06-10T10:04:53;99594.53;;;23.54;nan
6349;BME280;3207;42.648;23.406;2023-06-10T10:09:46;99583.00;;;23.34;nan
6349;BME280;3207;42.648;23.406;2023-06-10T10:12:15;99586.75;;;23.59;nan
6349;BME280;3207;42.648;23.406;2023-06-10T10:14:46;99584.66;;;23.88;nan
6349;BME280;3207;42.648;23.406;2023-06-10T10:19:46;99560.28;;;24.42;nan
6349;BME280;3207;42.648;23.406;2023-06-10T10:22:20;99579.25;;;24.78;nan
6349;BME280;3207;42.648;23.406;2023-06-10T10:24:55;99567.31;;;25.12;nan
6349;BME280;3207;42.648;23.406;2023-06-10T10:27:27;99577.03;;;25.38;nan
6349;BME280;3207;42.648;23.406;2023-06-10T10:29:58;99570.25;;;25.36;nan
6349;BME280;3207;42.648;23.406;2023-06-10T10:32:30;99565.88;;;24.78;nan
6349;BME280;3207;42.648;23.406;2023-06-10T10:35:03;99568.88;;;24.57;nan
6349;BME280;3207;42.648;23.406;2023-06-10T10:37:35;99560.38;;;24.67;nan
6349;BME280;3207;42.648;23.406;2023-06-10T10:40:02;99554.31;;;24.85;nan
6349;BME280;3207;42.648;23.406;2023-06-10T10:42:30;99558.28;;;24.69;nan
6349;BME280;3207;42.648;23.406;2023-06-10T10:44:59;99556.91;;;24.66;nan
6349;BME280;3207;42.648;23.406;2023-06-10T10:47:27;99557.59;;;24.87;nan
6349;BME280;3207;42.648;23.406;2023-06-10T10:49:55;99535.84;;;24.76;nan
6349;BME280;3207;42.648;23.406;2023-06-10T10:52:25;99547.31;;;24.84;nan
6349;BME280;3207;42.648;23.406;2023-06-10T10:57:20;99555.97;;;25.17;nan
6349;BME280;3207;42.648;23.406;2023-06-10T10:59:55;99555.59;;;25.13;nan
6349;BME280;3207;42.648;23.406;2023-06-10T11:02:37;99533.31;;;24.95;nan
6349;BME280;3207;42.648;23.406;2023-06-10T11:05:09;99542.94;;;25.27;nan
6349;BME280;3207;42.648;23.406;2023-06-10T11:07:37;99542.41;;;25.68;nan
6349;BME280;3207;42.648;23.406;2023-06-10T11:10:07;99537.34;;;25.97;nan
6349;BME280;3207;42.648;23.406;2023-06-10T11:12:47;99528.69;;;26.38;nan
6349;BME280;3207;42.648;23.406;2023-06-10T11:15:19;99521.16;;;26.46;nan
6349;BME280;3207;42.648;23.406;2023-06-10T11:18:12;99517.69;;;26.57;nan
6349;BME280;3207;42.648;23.406;2023-06-10T11:20:55;99510.84;;;27.03;nan
6349;BME280;3207;42.648;23.406;2023-06-10T11:23:41;99513.47;;;27.21;nan
6349;BME280;3207;42.648;23.406;2023-06-10T11:26:12;99506.66;;;27.07;nan
6349;BME280;3207;42.648;23.406;2023-06-10T11:28:40;99502.81;;;27.15;nan
6349;BME280;3207;42.648;23.406;2023-06-10T11:31:08;99503.06;;;27.48;nan
6349;BME280;3207;42.648;23.406;2023-06-10T11:33:38;99495.84;;;27.37;nan
6349;BME280;3207;42.648;23.406;2023-06-10T11:36:07;99496.06;;;27.24;nan
6349;BME280;3207;42.648;23.406;2023-06-10T11:38:34;99499.34;;;27.49;nan
6349;BME280;3207;42.648;23.406;2023-06-10T11:43:28;99488.16;;;27.76;nan
6349;BME280;3207;42.648;23.406;2023-06-10T11:45:56;99487.78;;;27.25;nan
6349;BME280;3207;42.648;23.406;2023-06-10T11:48:23;99487.53;;;27.39;nan
6349;BME280;3207;42.648;23.406;2023-06-10T11:50:52;99486.63;;;27.68;nan
6349;BME280;3207;42.648;23.406;2023-06-10T11:53:19;99475.41;;;27.71;nan
6349;BME280;3207;42.648;23.406;2023-06-10T11:55:47;99467.72;;;27.75;nan
6349;BME280;3207;42.648;23.406;2023-06-10T11:58:14;99493.53;;;27.76;nan
6349;BME280;3207;42.648;23.406;2023-06-10T12:00:45;99474.00;;;27.80;nan
6349;BME280;3207;42.648;23.406;2023-06-10T12:03:12;99427.88;;;27.48;nan
6349;BME280;3207;42.648;23.406;2023-06-10T12:05:39;99449.72;;;28.15;nan
6349;BME280;3207;42.648;23.406;2023-06-10T12:08:11;99438.78;;;28.05;nan
6349;BME280;3207;42.648;23.406;2023-06-10T12:10:42;99442.41;;;27.99;nan
6349;BME280;3207;42.648;23.406;2023-06-10T12:13:09;99441.50;;;28.50;nan
6349;BME280;3207;42.648;23.406;2023-06-10T12:15:36;99437.25;;;28.37;nan
6349;BME280;3207;42.648;23.406;2023-06-10T12:18:03;99432.31;;;28.46;nan
6349;BME280;3207;42.648;23.406;2023-06-10T12:20:31;99439.19;;;28.25;nan
6349;BME280;3207;42.648;23.406;2023-06-10T12:22:59;99430.25;;;28.36;nan
6349;BME280;3207;42.648;23.406;2023-06-10T12:25:28;99435.81;;;28.47;nan
6349;BME280;3207;42.648;23.406;2023-06-10T12:27:56;99387.78;;;28.10;nan
6349;BME280;3207;42.648;23.406;2023-06-10T12:30:25;99441.25;;;27.95;nan
6349;BME280;3207;42.648;23.406;2023-06-10T12:32:53;99442.81;;;27.67;nan
6349;BME280;3207;42.648;23.406;2023-06-10T12:35:22;99440.94;;;27.80;nan
6349;BME280;3207;42.648;23.406;2023-06-10T12:37:56;99416.41;;;28.16;nan
6349;BME280;3207;42.648;23.406;2023-06-10T12:40:30;99420.78;;;28.34;nan
6349;BME280;3207;42.648;23.406;2023-06-10T12:42:58;99414.94;;;28.37;nan
6349;BME280;3207;42.648;23.406;2023-06-10T12:45:29;99414.41;;;28.23;nan
6349;BME280;3207;42.648;23.406;2023-06-10T12:48:05;99431.72;;;28.44;nan
6349;BME280;3207;42.648;23.406;2023-06-10T12:50:34;99426.97;;;28.18;nan
6349;BME280;3207;42.648;23.406;2023-06-10T12:53:02;99435.50;;;28.03;nan
6349;BME280;3207;42.648;23.406;2023-06-10T12:55:31;99416.38;;;27.88;nan
6349;BME280;3207;42.648;23.406;2023-06-10T12:57:58;99431.81;;;27.81;nan
6349;BME280;3207;42.648;23.406;2023-06-10T13:00:25;99421.34;;;27.44;nan
6349;BME280;3207;42.648;23.406;2023-06-10T13:02:55;99425.66;;;27.68;nan
6349;BME280;3207;42.648;23.406;2023-06-10T13:05:22;99430.47;;;27.55;nan
6349;BME280;3207;42.648;23.406;2023-06-10T13:07:48;99438.41;;;27.61;nan
6349;BME280;3207;42.648;23.406;2023-06-10T13:10:16;99428.13;;;27.98;nan
6349;BME280;3207;42.648;23.406;2023-06-10T13:12:45;99435.75;;;28.30;nan
6349;BME280;3207;42.648;23.406;2023-06-10T13:15:12;99421.94;;;28.38;nan
6349;BME280;3207;42.648;23.406;2023-06-10T13:17:40;99449.22;;;28.75;nan
6349;BME280;3207;42.648;23.406;2023-06-10T13:20:07;99442.97;;;28.86;nan
6349;BME280;3207;42.648;23.406;2023-06-10T13:22:34;99440.72;;;28.66;nan
6349;BME280;3207;42.648;23.406;2023-06-10T13:25:02;99455.56;;;28.69;nan
6349;BME280;3207;42.648;23.406;2023-06-10T13:27:29;99429.75;;;28.39;nan
6349;BME280;3207;42.648;23.406;2023-06-10T13:29:58;99424.69;;;28.26;nan
6349;BME280;3207;42.648;23.406;2023-06-10T13:32:24;99428.50;;;28.02;nan
6349;BME280;3207;42.648;23.406;2023-06-10T13:34:51;99418.34;;;28.32;nan
6349;BME280;3207;42.648;23.406;2023-06-10T13:37:19;99415.41;;;28.34;nan
6349;BME280;3207;42.648;23.406;2023-06-10T13:39:46;99426.47;;;28.09;nan
6349;BME280;3207;42.648;23.406;2023-06-10T13:42:13;99429.53;;;28.01;nan
6349;BME280;3207;42.648;23.406;2023-06-10T13:44:40;99417.13;;;28.12;nan
6349;BME280;3207;42.648;23.406;2023-06-10T13:47:09;99419.22;;;28.10;nan
6349;BME280;3207;42.648;23.406;2023-06-10T13:49:35;99438.56;;;27.95;nan
6349;BME280;3207;42.648;23.406;2023-06-10T13:52:03;99410.38;;;27.46;nan
6349;BME280;3207;42.648;23.406;2023-06-10T13:54:30;99410.13;;;27.47;nan
6349;BME280;3207;42.648;23.406;2023-06-10T13:56:56;99410.38;;;27.46;nan
6349;BME280;3207;42.648;23.406;2023-06-10T13:59:24;99417.13;;;27.48;nan
6349;BME280;3207;42.648;23.406;2023-06-10T14:01:51;99414.56;;;27.53;nan
6349;BME280;3207;42.648;23.406;2023-06-10T14:04:19;99404.44;;;27.09;nan
6349;BME280;3207;42.648;23.406;2023-06-10T14:06:46;99399.19;;;27.14;nan
6349;BME280;3207;42.648;23.406;2023-06-10T14:09:13;99392.91;;;26.96;nan
6349;BME280;3207;42.648;23.406;2023-06-10T14:11:41;99415.66;;;27.17;nan
6349;BME280;3207;42.648;23.406;2023-06-10T14:14:09;99373.47;;;26.71;nan
6349;BME280;3207;42.648;23.406;2023-06-10T14:16:36;99432.22;;;27.38;nan
6349;BME280;3207;42.648;23.406;2023-06-10T14:19:02;99422.97;;;27.68;nan
6349;BME280;3207;42.648;23.406;2023-06-10T14:21:30;99401.75;;;27.95;nan
6349;BME280;3207;42.648;23.406;2023-06-10T14:24:01;99402.03;;;28.22;nan
6349;BME280;3207;42.648;23.406;2023-06-10T14:26:28;99402.69;;;28.29;nan
6349;BME280;3207;42.648;23.406;2023-06-10T14:28:57;99405.38;;;28.29;nan
6349;BME280;3207;42.648;23.406;2023-06-10T14:31:24;99419.91;;;28.45;nan
6349;BME280;3207;42.648;23.406;2023-06-10T14:33:50;99411.81;;;28.28;nan
6349;BME280;3207;42.648;23.406;2023-06-10T14:36:17;99416.56;;;28.38;nan
6349;BME280;3207;42.648;23.406;2023-06-10T14:38:45;99415.88;;;28.31;nan
6349;BME280;3207;42.648;23.406;2023-06-10T14:41:13;99407.06;;;28.19;nan
6349;BME280;3207;42.648;23.406;2023-06-10T14:43:39;99396.00;;;28.03;nan
6349;BME280;3207;42.648;23.406;2023-06-10T14:46:06;99415.63;;;28.04;nan
6349;BME280;3207;42.648;23.406;2023-06-10T14:48:33;99405.97;;;27.91;nan
6349;BME280;3207;42.648;23.406;2023-06-10T14:51:00;99405.06;;;27.86;nan
6349;BME280;3207;42.648;23.406;2023-06-10T14:53:27;99402.84;;;27.83;nan
6349;BME280;3207;42.648;23.406;2023-06-10T14:55:56;99403.91;;;27.82;nan
6349;BME280;3207;42.648;23.406;2023-06-10T14:58:22;99413.59;;;27.83;nan
6349;BME280;3207;42.648;23.406;2023-06-10T15:00:49;99388.25;;;27.79;nan
6349;BME280;3207;42.648;23.406;2023-06-10T15:03:16;99407.91;;;27.67;nan
6349;BME280;3207;42.648;23.406;2023-06-10T15:05:43;99414.09;;;27.68;nan
6349;BME280;3207;42.648;23.406;2023-06-10T15:08:10;99446.22;;;27.63;nan
6349;BME280;3207;42.648;23.406;2023-06-10T15:10:37;99408.75;;;27.56;nan
6349;BME280;3207;42.648;23.406;2023-06-10T15:13:05;99401.38;;;27.52;nan
6349;BME280;3207;42.648;23.406;2023-06-10T15:15:32;99408.94;;;27.66;nan
6349;BME280;3207;42.648;23.406;2023-06-10T15:17:59;99404.88;;;27.52;nan
6349;BME280;3207;42.648;23.406;2023-06-10T15:20:25;99410.03;;;27.54;nan
6349;BME280;3207;42.648;23.406;2023-06-10T15:22:52;99411.19;;;27.46;nan
6349;BME280;3207;42.648;23.406;2023-06-10T15:25:20;99430.94;;;27.40;nan
6349;BME280;3207;42.648;23.406;2023-06-10T15:27:46;99408.28;;;27.36;nan
6349;BME280;3207;42.648;23.406;2023-06-10T15:30:15;99446.59;;;27.43;nan
6349;BME280;3207;42.648;23.406;2023-06-10T15:32:41;99406.41;;;27.25;nan
6349;BME280;3207;42.648;23.406;2023-06-10T15:35:08;99404.78;;;27.24;nan
6349;BME280;3207;42.648;23.406;2023-06-10T15:37:35;99431.28;;;26.97;nan
6349;BME280;3207;42.648;23.406;2023-06-10T15:40:02;99418.09;;;26.95;nan
6349;BME280;3207;42.648;23.406;2023-06-10T15:42:29;99404.56;;;27.14;nan
6349;BME280;3207;42.648;23.406;2023-06-10T15:44:56;99510.50;;;27.00;nan
6349;BME280;3207;42.648;23.406;2023-06-10T15:47:25;99408.53;;;27.00;nan
6349;BME280;3207;42.648;23.406;2023-06-10T15:49:55;99415.28;;;26.90;nan
6349;BME280;3207;42.648;23.406;2023-06-10T15:52:22;99413.63;;;26.89;nan
6349;BME280;3207;42.648;23.406;2023-06-10T15:54:48;99423.00;;;26.99;nan
6349;BME280;3207;42.648;23.406;2023-06-10T15:57:15;99429.06;;;27.06;nan
6349;BME280;3207;42.648;23.406;2023-06-10T15:59:42;99421.84;;;27.18;nan
6349;BME280;3207;42.648;23.406;2023-06-10T16:02:09;99418.47;;;27.22;nan
6349;BME280;3207;42.648;23.406;2023-06-10T16:04:38;99430.13;;;27.28;nan
6349;BME280;3207;42.648;23.406;2023-06-10T16:07:05;99407.81;;;27.16;nan
6349;BME280;3207;42.648;23.406;2023-06-10T16:09:32;99421.59;;;27.19;nan
6349;BME280;3207;42.648;23.406;2023-06-10T16:12:00;99424.75;;;27.16;nan
6349;BME280;3207;42.648;23.406;2023-06-10T16:14:27;99441.31;;;27.13;nan
6349;BME280;3207;42.648;23.406;2023-06-10T16:16:54;99418.34;;;27.06;nan
6349;BME280;3207;42.648;23.406;2023-06-10T16:19:22;99425.56;;;27.17;nan
6349;BME280;3207;42.648;23.406;2023-06-10T16:21:51;99423.00;;;27.22;nan
6349;BME280;3207;42.648;23.406;2023-06-10T16:24:17;99437.81;;;27.13;nan
6349;BME280;3207;42.648;23.406;2023-06-10T16:26:44;99427.09;;;27.01;nan
6349;BME280;3207;42.648;23.406;2023-06-10T16:29:13;99428.00;;;26.95;nan
6349;BME280;3207;42.648;23.406;2023-06-10T16:31:40;99435.25;;;27.06;nan
6349;BME280;3207;42.648;23.406;2023-06-10T16:34:07;99426.38;;;27.17;nan
6349;BME280;3207;42.648;23.406;2023-06-10T16:36:34;99430.81;;;27.23;nan
6349;BME280;3207;42.648;23.406;2023-06-10T16:39:02;99432.81;;;27.28;nan
6349;BME280;3207;42.648;23.406;2023-06-10T16:41:29;99432.44;;;27.24;nan
6349;BME280;3207;42.648;23.406;2023-06-10T16:43:56;99439.56;;;27.19;nan
6349;BME280;3207;42.648;23.406;2023-06-10T16:46:23;99436.06;;;27.07;nan
6349;BME280;3207;42.648;23.406;2023-06-10T16:48:50;99444.81;;;27.14;nan
6349;BME280;3207;42.648;23.406;2023-06-10T16:51:17;99443.44;;;27.11;nan
6349;BME280;3207;42.648;23.406;2023-06-10T16:53:44;99432.19;;;26.91;nan
6349;BME280;3207;42.648;23.406;2023-06-10T16:56:12;99445.63;;;27.03;nan
6349;BME280;3207;42.648;23.406;2023-06-10T16:58:39;99438.34;;;26.91;nan
6349;BME280;3207;42.648;23.406;2023-06-10T17:01:07;99442.56;;;26.87;nan
6349;BME280;3207;42.648;23.406;2023-06-10T17:03:34;99436.00;;;26.83;nan
6349;BME280;3207;42.648;23.406;2023-06-10T17:06:01;99442.31;;;26.77;nan
6349;BME280;3207;42.648;23.406;2023-06-10T17:08:28;99443.09;;;26.66;nan
6349;BME280;3207;42.648;23.406;2023-06-10T17:10:55;99499.75;;;26.40;nan
6349;BME280;3207;42.648;23.406;2023-06-10T17:13:23;99472.97;;;26.40;nan
6349;BME280;3207;42.648;23.406;2023-06-10T17:15:50;99466.44;;;26.36;nan
6349;BME280;3207;42.648;23.406;2023-06-10T17:18:17;99474.69;;;26.34;nan
6349;BME280;3207;42.648;23.406;2023-06-10T17:20:44;99468.97;;;26.31;nan
6349;BME280;3207;42.648;23.406;2023-06-10T17:23:10;99469.56;;;26.33;nan
6349;BME280;3207;42.648;23.406;2023-06-10T17:25:37;99473.50;;;26.30;nan
6349;BME280;3207;42.648;23.406;2023-06-10T17:28:04;99467.31;;;26.30;nan
6349;BME280;3207;42.648;23.406;2023-06-10T17:30:32;99468.38;;;26.29;nan
6349;BME280;3207;42.648;23.406;2023-06-10T17:32:59;99464.13;;;26.21;nan
6349;BME280;3207;42.648;23.406;2023-06-10T17:35:26;99458.38;;;26.17;nan
6349;BME280;3207;42.648;23.406;2023-06-10T17:37:52;99452.75;;;26.07;nan
6349;BME280;3207;42.648;23.406;2023-06-10T17:40:19;99450.09;;;25.89;nan
6349;BME280;3207;42.648;23.406;2023-06-10T17:42:46;99447.63;;;25.87;nan